Time;durP1;ratioP1;P1;durP2;ratioP2;P2;SDS_P1;SDS_P2;PMS_P1;PMS_P2;Temp;Humidity;BMP_temperature;BMP_pressure;BME280_temperature;BME280_humidity;BME280_pressure;Samples;Min_cycle;Max_cycle;Signal;HPM_P1;HPM_P2
2022/07/25 00:01:08;;;;;;;9.05;5.58;;;;;;;17.70;86.32;100835.29;1905164;75;21029;-61
2022/07/25 00:03:36;;;;;;;9.58;5.08;;;;;;;17.74;86.37;100841.66;1905357;75;21106;-61
2022/07/25 00:06:05;;;;;;;7.50;4.85;;;;;;;17.74;86.09;100831.00;1905260;75;21060;-61
2022/07/25 00:08:35;;;;;;;10.80;5.30;;;;;;;17.75;86.03;100838.02;1905142;75;21083;-61
2022/07/25 00:11:04;;;;;;;14.18;7.47;;;;;;;17.77;85.91;100837.07;1905216;75;21028;-61
2022/07/25 00:13:33;;;;;;;11.73;5.83;;;;;;;17.75;86.08;100835.35;1905389;75;21098;-61
2022/07/25 00:16:02;;;;;;;14.53;6.58;;;;;;;17.73;86.31;100831.95;1905233;75;21584;-61
2022/07/25 00:18:32;;;;;;;9.75;5.70;;;;;;;17.72;86.24;100834.25;1905262;75;21059;-61
2022/07/25 00:21:00;;;;;;;10.70;5.30;;;;;;;17.70;86.15;100829.48;1905273;75;21040;-61
2022/07/25 00:23:29;;;;;;;10.03;5.28;;;;;;;17.69;86.25;100829.13;1905163;75;21556;-61
2022/07/25 00:25:58;;;;;;;11.08;5.22;;;;;;;17.69;86.21;100822.95;1905370;75;21102;-61
2022/07/25 00:28:26;;;;;;;8.30;4.75;;;;;;;17.68;86.17;100823.41;1905296;75;20993;-61
2022/07/25 00:30:55;;;;;;;8.68;4.47;;;;;;;17.70;86.23;100820.16;1905259;75;20997;-61
2022/07/25 00:33:24;;;;;;;9.85;4.60;;;;;;;17.70;86.12;100824.16;1905255;75;21471;-62
2022/07/25 00:35:52;;;;;;;9.58;6.20;;;;;;;17.70;86.02;100824.16;1905257;75;21024;-63
2022/07/25 00:38:21;;;;;;;10.78;6.08;;;;;;;17.70;86.00;100826.81;1905223;75;21024;-62
2022/07/25 00:40:50;;;;;;;12.70;5.22;;;;;;;17.68;86.20;100823.41;1919826;74;21454;-61
2022/07/25 00:43:18;;;;;;;8.70;5.30;;;;;;;17.68;86.34;100830.06;1924637;74;21028;-61
2022/07/25 00:45:50;;;;;;;11.00;4.60;;;;;;;17.66;86.14;100829.31;1924708;74;21110;-62
2022/07/25 00:48:18;;;;;;;8.03;5.58;;;;;;;17.65;86.24;100838.28;1924598;74;21087;-62
2022/07/25 00:50:47;;;;;;;11.28;5.12;;;;;;;17.62;86.24;100834.48;1924623;74;21102;-62
2022/07/25 00:53:16;;;;;;;8.28;4.85;;;;;;;17.59;86.34;100833.34;1924651;74;21481;-62
2022/07/25 00:55:46;;;;;;;8.50;5.15;;;;;;;17.56;86.36;100832.24;1924637;74;21502;-62
2022/07/25 00:58:15;;;;;;;9.43;5.25;;;;;;;17.53;86.45;100836.42;1924628;74;21012;-61
2022/07/25 01:00:44;;;;;;;9.15;5.28;;;;;;;17.51;86.63;100831.69;1924703;74;21012;-63
2022/07/25 01:03:13;;;;;;;12.47;5.92;;;;;;;17.48;86.49;100831.88;1924569;74;21012;-62
2022/07/25 01:05:41;;;;;;;9.30;5.08;;;;;;;17.47;86.68;100832.86;1924581;74;21466;-62
2022/07/25 01:08:11;;;;;;;11.65;5.70;;;;;;;17.46;87.00;100833.31;1924615;74;21028;-62
2022/07/25 01:10:39;;;;;;;7.83;5.00;;;;;;;17.46;87.20;100831.13;1924619;74;21478;-62
2022/07/25 01:13:08;;;;;;;8.80;5.10;;;;;;;17.46;87.14;100833.31;1924642;74;21125;-62
2022/07/25 01:15:37;;;;;;;9.13;5.15;;;;;;;17.45;87.27;100833.44;1924587;74;21024;-61
2022/07/25 01:18:06;;;;;;;14.87;4.75;;;;;;;17.44;87.20;100836.55;1924642;74;21521;-61
2022/07/25 01:20:35;;;;;;;9.45;5.42;;;;;;;17.44;87.17;100838.38;1924621;74;20995;-61
2022/07/25 01:23:03;;;;;;;8.00;5.35;;;;;;;17.42;87.22;100838.95;1924624;74;21458;-61
2022/07/25 01:25:32;;;;;;;9.70;4.67;;;;;;;17.37;87.27;100836.58;1924653;74;21019;-61
2022/07/25 01:28:01;;;;;;;11.53;4.80;;;;;;;17.34;87.15;100832.81;1924623;74;21071;-61
2022/07/25 01:30:29;;;;;;;8.25;5.03;;;;;;;17.32;87.07;100832.91;1924659;74;21109;-61
2022/07/25 01:32:58;;;;;;;7.65;4.72;;;;;;;17.30;86.99;100835.27;1924725;74;21028;-61
2022/07/25 01:35:26;;;;;;;7.92;5.25;;;;;;;17.27;87.19;100824.37;1924618;74;21035;-61
2022/07/25 01:37:55;;;;;;;9.13;5.62;;;;;;;17.28;87.21;100832.74;1924633;74;21485;-61
2022/07/25 01:40:24;;;;;;;9.43;5.47;;;;;;;17.25;87.19;100820.95;1919661;74;21126;-61
2022/07/25 01:42:52;;;;;;;8.30;5.15;;;;;;;17.25;87.16;100834.27;1905296;75;21104;-62
2022/07/25 01:45:21;;;;;;;7.80;4.90;;;;;;;17.26;87.44;100830.63;1905178;75;21105;-62
2022/07/25 01:47:50;;;;;;;9.65;5.58;;;;;;;17.26;87.51;100828.45;1905221;75;21036;-62
2022/07/25 01:50:19;;;;;;;14.45;6.12;;;;;;;17.26;87.68;100827.97;1905206;75;21097;-62
2022/07/25 01:52:48;;;;;;;10.65;5.53;;;;;;;17.27;87.69;100827.03;1905225;75;21005;-62
2022/07/25 01:55:17;;;;;;;13.20;5.58;;;;;;;17.28;88.13;100829.20;1905194;75;21079;-61
2022/07/25 01:57:46;;;;;;;11.25;6.17;;;;;;;17.30;88.43;100821.52;1905286;75;21048;-61
2022/07/25 02:00:16;;;;;;;10.65;5.47;;;;;;;17.31;88.56;100825.86;1905256;75;21503;-61
2022/07/25 02:02:45;;;;;;;7.90;5.50;;;;;;;17.30;88.28;100832.61;1905345;75;21008;-60
2022/07/25 02:05:15;;;;;;;8.60;5.40;;;;;;;17.27;88.15;100829.69;1905231;75;21106;-61
2022/07/25 02:07:44;;;;;;;11.55;6.65;;;;;;;17.25;88.38;100820.11;1905109;74;21094;-61
2022/07/25 02:10:12;;;;;;;17.77;6.17;;;;;;;17.24;88.59;100828.55;1905205;75;20992;-61
2022/07/25 02:12:41;;;;;;;9.13;5.87;;;;;;;17.24;88.58;100829.87;1905210;75;20993;-61
2022/07/25 02:15:10;;;;;;;10.30;5.80;;;;;;;17.24;88.48;100825.89;1905309;75;20992;-61
2022/07/25 02:17:39;;;;;;;9.15;6.03;;;;;;;17.24;88.52;100829.87;1905255;75;21028;-62
2022/07/25 02:20:08;;;;;;;8.35;5.00;;;;;;;17.25;88.58;100826.28;1905218;75;21024;-62
2022/07/25 02:22:37;;;;;;;8.68;5.22;;;;;;;17.26;88.68;100823.98;1905280;75;21106;-62
2022/07/25 02:25:06;;;;;;;8.60;5.65;;;;;;;17.28;88.51;100820.77;1905230;75;21097;-61
2022/07/25 02:27:35;;;;;;;9.80;6.15;;;;;;;17.29;88.54;100823.78;1905310;75;21029;-62
2022/07/25 02:30:04;;;;;;;9.63;5.62;;;;;;;17.34;88.65;100824.83;1905231;75;21025;-62
2022/07/25 02:32:33;;;;;;;9.20;4.97;;;;;;;17.41;88.61;100829.25;1905023;75;21047;-62
2022/07/25 02:35:02;;;;;;;7.62;4.55;;;;;;;17.50;88.69;100821.53;1905218;75;21522;-62
2022/07/25 02:37:30;;;;;;;5.50;3.95;;;;;;;17.62;88.71;100820.33;1905263;75;21025;-61
2022/07/25 02:39:59;;;;;;;7.17;4.62;;;;;;;17.71;88.68;100819.22;1905188;75;21036;-60
2022/07/25 02:42:27;;;;;;;6.15;4.25;;;;;;;17.81;88.56;100821.25;1905342;74;21060;-61
2022/07/25 02:44:56;;;;;;;5.53;4.15;;;;;;;17.88;88.45;100810.59;1905192;75;21024;-62
2022/07/25 02:47:25;;;;;;;8.28;4.20;;;;;;;17.96;88.26;100811.39;1905261;75;21103;-62
2022/07/25 02:49:54;;;;;;;9.33;3.85;;;;;;;18.02;88.07;100810.50;1905241;75;21017;-61
2022/07/25 02:52:22;;;;;;;10.13;4.95;;;;;;;18.10;87.82;100818.80;1905310;75;21448;-62
2022/07/25 02:54:51;;;;;;;11.55;4.95;;;;;;;18.16;87.47;100816.19;1905225;75;21138;-62
2022/07/25 02:57:20;;;;;;;6.80;4.03;;;;;;;18.25;87.31;100814.20;1905185;75;21467;-62
2022/07/25 02:59:48;;;;;;;11.08;4.25;;;;;;;18.35;87.26;100813.07;1905031;75;21028;-63
2022/07/25 03:02:17;;;;;;;7.92;3.85;;;;;;;18.45;86.81;100814.14;1905205;75;21138;-62
2022/07/25 03:04:45;;;;;;;5.42;4.10;;;;;;;18.71;86.27;100812.27;1905187;75;21543;-62
2022/07/25 03:07:14;;;;;;;7.05;3.60;;;;;;;19.04;85.25;100811.30;1905304;75;21016;-62
2022/07/25 03:09:42;;;;;;;5.20;3.12;;;;;;;19.21;84.17;100814.89;1905220;75;21114;-62
2022/07/25 03:12:11;;;;;;;6.83;4.20;;;;;;;19.28;83.91;100817.48;1905196;75;21024;-63
2022/07/25 03:14:41;;;;;;;6.78;4.12;;;;;;;19.36;83.62;100819.58;1905170;75;21029;-62
2022/07/25 03:17:09;;;;;;;5.72;3.37;;;;;;;19.53;83.15;100815.66;1905153;75;21008;-62
2022/07/25 03:19:38;;;;;;;5.75;3.75;;;;;;;19.61;82.90;100815.08;1905261;74;21094;-62
2022/07/25 03:22:06;;;;;;;4.30;3.42;;;;;;;19.62;82.80;100810.95;1905306;74;21329;-61
2022/07/25 03:24:35;;;;;;;10.53;2.70;;;;;;;19.66;83.00;100816.42;1905088;75;21020;-62
2022/07/25 03:27:04;;;;;;;11.40;3.47;;;;;;;19.73;83.14;100810.64;1905121;75;21554;-60
2022/07/25 03:29:33;;;;;;;5.58;2.62;;;;;;;19.81;83.17;100810.92;1905165;75;21094;-61
2022/07/25 03:32:01;;;;;;;4.03;2.83;;;;;;;19.94;83.45;100816.14;1905100;75;20996;-60
2022/07/25 03:34:30;;;;;;;6.70;2.98;;;;;;;20.06;83.53;100810.70;1905245;75;21020;-60
2022/07/25 03:36:59;;;;;;;4.28;2.47;;;;;;;20.22;83.78;100817.53;1905196;75;21048;-60
2022/07/25 03:39:28;;;;;;;4.53;2.50;;;;;;;20.34;83.53;100816.55;1904996;75;21103;-61
2022/07/25 03:41:57;;;;;;;5.17;3.10;;;;;;;20.46;83.23;100817.91;1905215;75;21104;-60
2022/07/25 03:44:26;;;;;;;7.65;2.80;;;;;;;20.58;82.91;100814.23;1905192;75;21032;-60
2022/07/25 03:46:54;;;;;;;8.25;2.77;;;;;;;20.67;82.05;100804.17;1905245;75;21482;-60
2022/07/25 03:49:23;;;;;;;5.30;2.60;;;;;;;20.76;81.08;100816.80;1905237;75;21024;-60
2022/07/25 03:51:51;;;;;;;3.87;2.45;;;;;;;20.85;80.33;100815.70;1905162;75;21044;-61
2022/07/25 03:54:20;;;;;;;4.55;2.42;;;;;;;20.92;79.84;100817.76;1905378;75;21094;-61
2022/07/25 03:56:50;;;;;;;4.92;3.12;;;;;;;20.97;79.21;100821.38;1905288;75;21040;-61
2022/07/25 03:59:21;;;;;;;4.00;2.80;;;;;;;21.07;78.93;100816.14;1905237;75;21024;-61
2022/07/25 04:01:51;;;;;;;6.70;2.80;;;;;;;21.14;78.37;100808.81;1905389;75;21094;-61
2022/07/25 04:04:19;;;;;;;4.40;3.50;;;;;;;21.25;77.92;100813.75;1905402;75;21447;-61
2022/07/25 04:06:48;;;;;;;5.20;2.65;;;;;;;21.36;77.56;100810.56;1905376;75;21067;-61
2022/07/25 04:09:16;;;;;;;5.15;2.90;;;;;;;21.50;77.19;100804.06;1905480;75;21068;-61
2022/07/25 04:11:46;;;;;;;5.55;2.50;;;;;;;21.64;76.69;100811.45;1905477;75;21021;-60
2022/07/25 04:14:15;;;;;;;4.40;2.72;;;;;;;21.80;76.31;100807.83;1905251;75;21044;-61
2022/07/25 04:16:43;;;;;;;4.70;2.77;;;;;;;22.02;75.99;100815.34;1905283;75;21094;-61
2022/07/25 04:19:12;;;;;;;5.05;3.58;;;;;;;22.26;75.39;100810.59;1905224;75;21145;-61
2022/07/25 04:21:41;;;;;;;3.75;2.87;;;;;;;22.49;74.61;100811.23;1905335;75;21513;-61
2022/07/25 04:24:09;;;;;;;5.17;2.30;;;;;;;22.65;73.58;100816.09;1905258;75;21009;-61
2022/07/25 04:26:38;;;;;;;4.30;2.85;;;;;;;22.86;72.95;100809.79;1905314;75;21068;-61
2022/07/25 04:29:07;;;;;;;4.53;3.20;;;;;;;23.00;71.79;100808.06;1905299;75;21095;-61
2022/07/25 04:31:35;;;;;;;4.30;2.83;;;;;;;23.20;71.00;100814.81;1905237;75;21131;-61
2022/07/25 04:34:04;;;;;;;13.43;4.00;;;;;;;23.39;71.00;100816.67;1905287;75;21020;-61
2022/07/25 04:36:32;;;;;;;3.92;2.90;;;;;;;23.59;70.53;100818.84;1905247;75;21086;-61
2022/07/25 04:39:01;;;;;;;4.95;3.47;;;;;;;23.78;69.95;100817.48;1905362;75;21098;-60
2022/07/25 04:41:30;;;;;;;4.70;2.77;;;;;;;23.98;69.58;100812.11;1905220;75;21522;-61
2022/07/25 04:43:58;;;;;;;6.58;3.37;;;;;;;24.25;69.32;100814.86;1905243;75;21104;-61
2022/07/25 04:46:27;;;;;;;7.87;3.25;;;;;;;24.35;67.90;100813.98;1905321;75;21025;-61
2022/07/25 04:48:55;;;;;;;5.45;3.08;;;;;;;24.39;67.34;100814.02;1905251;75;21470;-61
2022/07/25 04:51:24;;;;;;;6.20;2.95;;;;;;;24.52;67.52;100805.13;1905252;75;21028;-61
2022/07/25 04:53:53;;;;;;;6.60;2.98;;;;;;;24.68;67.01;100815.74;1905229;75;21028;-61
2022/07/25 04:56:21;;;;;;;6.22;2.80;;;;;;;24.90;66.87;100816.70;1905276;75;21114;-62
2022/07/25 04:58:50;;;;;;;3.02;2.52;;;;;;;25.17;66.44;100821.67;1905335;75;21091;-61
2022/07/25 05:01:18;;;;;;;9.35;2.33;;;;;;;25.36;65.72;100816.66;1905182;75;21149;-62
2022/07/25 05:03:47;;;;;;;4.67;2.33;;;;;;;25.50;64.52;100826.06;1905469;75;21494;-61
2022/07/25 05:06:16;;;;;;;5.15;2.37;;;;;;;25.58;64.45;100831.03;1905363;75;21021;-61
2022/07/25 05:08:44;;;;;;;8.25;2.65;;;;;;;25.72;63.55;100828.77;1905278;75;21032;-61
2022/07/25 05:11:13;;;;;;;7.87;3.60;;;;;;;25.78;63.29;100824.96;1905168;75;21107;-61
2022/07/25 05:13:41;;;;;;;5.20;2.40;;;;;;;25.97;62.71;100829.84;1905254;75;21506;-61
2022/07/25 05:16:10;;;;;;;3.83;2.20;;;;;;;26.11;62.23;100835.98;1905242;75;21016;-61
2022/07/25 05:18:39;;;;;;;7.80;2.45;;;;;;;26.34;62.30;100831.41;1905322;75;21072;-61
2022/07/25 05:21:12;;;;;;;4.85;2.12;;;;;;;26.71;62.46;100839.20;1905218;75;21090;-61
2022/07/25 05:35:28;;;;;;;2.50;2.10;;;;;;;27.57;55.76;100826.38;1959175;73;22094;-60
2022/07/25 05:37:56;;;;;;;3.42;2.22;;;;;;;27.69;55.52;100825.03;1918316;75;21509;-60
2022/07/25 05:40:25;;;;;;;8.33;2.52;;;;;;;27.76;54.88;100825.69;1918173;75;21016;-60
2022/07/25 05:42:53;;;;;;;3.58;2.47;;;;;;;27.77;54.78;100820.11;1918401;74;21097;-62
2022/07/25 05:45:22;;;;;;;3.20;2.40;;;;;;;27.99;55.21;100829.41;1918299;75;21477;-60
2022/07/25 05:47:52;;;;;;;6.45;2.17;;;;;;;28.19;54.85;100827.70;1918283;75;21482;-60
2022/07/25 05:50:21;;;;;;;3.87;2.20;;;;;;;28.42;54.27;100825.07;1918304;75;21031;-60
2022/07/25 05:52:49;;;;;;;4.05;2.60;;;;;;;28.47;53.14;100814.05;1918147;75;21107;-60
2022/07/25 05:55:18;;;;;;;5.78;2.67;;;;;;;28.41;52.25;100813.41;1918244;75;20998;-60
2022/07/25 05:57:47;;;;;;;3.45;2.40;;;;;;;28.38;51.83;100811.03;1918275;75;21536;-60
2022/07/25 06:00:16;;;;;;;4.42;2.60;;;;;;;28.36;50.61;100800.89;1918295;75;21455;-60
2022/07/25 06:02:45;;;;;;;3.92;2.00;;;;;;;28.42;51.05;100805.63;1918382;75;21015;-60
2022/07/25 06:05:13;;;;;;;3.65;2.37;;;;;;;28.53;50.38;100800.34;1918223;75;21016;-61
2022/07/25 06:07:42;;;;;;;2.70;2.25;;;;;;;28.58;49.94;100806.60;1918233;75;21572;-60
2022/07/25 06:10:10;;;;;;;4.20;2.52;;;;;;;28.81;50.14;100798.51;1918388;75;21032;-60
2022/07/25 06:12:39;;;;;;;4.42;2.62;;;;;;;28.99;49.80;100801.78;1918303;75;21125;-60
2022/07/25 06:15:08;;;;;;;8.50;2.77;;;;;;;28.98;49.07;100804.70;1918360;75;21024;-59
2022/07/25 06:17:37;;;;;;;3.77;2.30;;;;;;;29.13;49.23;100794.77;1918250;75;21024;-60
2022/07/25 06:20:06;;;;;;;3.40;2.27;;;;;;;29.26;49.26;100797.73;1918287;75;21224;-59
2022/07/25 06:22:35;;;;;;;6.15;2.72;;;;;;;29.37;48.58;100792.92;1918380;75;21035;-60
2022/07/25 06:25:04;;;;;;;4.17;3.30;;;;;;;29.45;48.52;100795.55;1918258;74;21016;-60
2022/07/25 06:27:34;;;;;;;3.52;2.33;;;;;;;29.40;47.74;100796.61;1918370;75;21079;-60
2022/07/25 06:30:05;;;;;;;2.35;2.12;;;;;;;29.39;48.05;100793.58;1918286;75;21027;-60
2022/07/25 06:32:34;;;;;;;7.17;2.42;;;;;;;29.62;48.08;100794.41;1918219;75;20996;-60
2022/07/25 06:35:03;;;;;;;3.50;2.10;;;;;;;29.87;47.80;100799.61;1921781;74;21059;-60
2022/07/25 06:37:32;;;;;;;2.65;2.10;;;;;;;29.92;46.14;100797.19;1925285;74;21048;-60
2022/07/25 06:40:01;;;;;;;5.55;2.27;;;;;;;30.11;46.53;100794.95;1925370;74;21509;-59
2022/07/25 06:42:30;;;;;;;2.58;2.37;;;;;;;30.21;45.94;100790.94;1925329;74;21008;-60
2022/07/25 06:44:58;;;;;;;4.47;2.70;;;;;;;30.21;45.14;100791.43;1925188;74;21024;-61
2022/07/25 06:47:27;;;;;;;4.03;2.90;;;;;;;30.26;44.79;100779.49;1924651;74;21027;-60
2022/07/25 06:49:56;;;;;;;4.75;2.20;;;;;;;30.35;44.67;100778.39;1924632;74;21477;-59
2022/07/25 06:52:24;;;;;;;6.22;2.08;;;;;;;30.50;44.77;100775.66;1924731;74;21023;-59
2022/07/25 06:54:53;;;;;;;2.20;2.00;;;;;;;30.62;44.65;100784.18;1924624;74;20996;-59
2022/07/25 06:57:22;;;;;;;6.08;2.15;;;;;;;30.96;44.50;100785.41;1924644;74;21024;-60
2022/07/25 06:59:51;;;;;;;3.75;2.00;;;;;;;31.24;43.40;100774.59;1924627;74;21109;-60
2022/07/25 07:02:19;;;;;;;5.30;2.20;;;;;;;31.34;43.61;100779.20;1924653;74;21008;-59
2022/07/25 07:04:48;;;;;;;5.03;3.05;;;;;;;31.57;43.54;100782.77;1924693;74;21113;-60
2022/07/25 07:07:17;;;;;;;4.78;2.85;;;;;;;31.63;42.76;100785.55;1924752;74;21097;-60
2022/07/25 07:09:45;;;;;;;3.17;2.30;;;;;;;31.62;42.57;100781.67;1924635;74;21035;-60
2022/07/25 07:12:14;;;;;;;3.95;2.60;;;;;;;31.61;42.43;100780.80;1924562;74;21091;-60
2022/07/25 07:14:44;;;;;;;7.65;2.40;;;;;;;31.66;41.64;100774.78;1924606;74;21008;-60
2022/07/25 07:17:12;;;;;;;3.52;2.35;;;;;;;31.55;42.00;100779.71;1924778;74;21012;-60
2022/07/25 07:19:44;;;;;;;2.22;1.98;;;;;;;31.69;42.37;100788.00;1924697;74;21078;-60
2022/07/25 07:22:11;;;;;;;6.62;2.15;;;;;;;31.87;42.13;100773.87;1924577;74;21536;-60
2022/07/25 07:24:40;;;;;;;13.62;3.27;;;;;;;32.08;41.68;100773.83;1924511;74;21016;-60
2022/07/25 07:27:08;;;;;;;4.92;2.77;;;;;;;32.18;41.21;100769.37;1924644;74;21074;-60
2022/07/25 07:29:37;;;;;;;3.42;1.90;;;;;;;32.24;41.60;100758.19;1924634;74;21024;-60
2022/07/25 07:32:06;;;;;;;2.87;2.30;;;;;;;32.65;41.20;100766.89;1924696;74;21027;-59
2022/07/25 07:34:35;;;;;;;7.28;2.65;;;;;;;32.95;40.73;100749.65;1924540;74;21477;-60
2022/07/25 07:37:03;;;;;;;2.98;2.10;;;;;;;32.95;40.73;100749.65;1924616;74;21117;-61
2022/07/25 07:39:32;;;;;;;3.65;2.25;;;;;;;33.26;39.41;100747.72;1924629;74;21020;-60
2022/07/25 07:42:02;;;;;;;2.30;1.65;;;;;;;33.26;39.41;100747.72;1924725;74;21588;-60
2022/07/25 07:44:30;;;;;;;3.02;2.30;;;;;;;33.01;39.27;100753.44;1924622;74;21016;-60
2022/07/25 07:47:01;;;;;;;5.80;2.52;;;;;;;32.86;39.85;100759.07;1924750;74;21016;-60
2022/07/25 07:49:29;;;;;;;6.83;2.40;;;;;;;32.43;39.33;100765.63;1924579;74;21023;-61
2022/07/25 07:51:58;;;;;;;5.80;2.52;;;;;;;32.58;39.87;100755.13;1924565;74;21086;-59
2022/07/25 07:57:13;;;;;;;2.75;2.00;;;;;;;33.02;39.02;100768.77;1924532;74;21060;-60
2022/07/25 07:59:41;;;;;;;4.50;2.60;;;;;;;33.16;38.60;100769.64;1924709;74;21063;-60
2022/07/25 08:02:10;;;;;;;4.90;2.02;;;;;;;33.09;38.48;100754.61;1924504;74;21015;-60
2022/07/25 08:04:39;;;;;;;5.20;1.85;;;;;;;32.95;38.49;100764.65;1924641;74;21074;-60
2022/07/25 08:07:07;;;;;;;3.72;2.08;;;;;;;33.07;38.50;100766.23;1924640;74;21019;-60
2022/07/25 08:09:36;;;;;;;3.95;2.50;;;;;;;33.00;37.85;100764.05;1924622;74;21035;-59
2022/07/25 08:12:05;;;;;;;4.17;2.47;;;;;;;33.17;37.78;100758.52;1924722;74;21098;-59
2022/07/25 08:14:34;;;;;;;3.60;1.95;;;;;;;33.11;38.08;100763.92;1924627;74;20992;-60
2022/07/25 08:17:02;;;;;;;5.12;2.20;;;;;;;33.17;38.10;100760.42;1924614;74;20984;-60
2022/07/25 08:19:31;;;;;;;5.62;1.80;;;;;;;33.45;37.16;100769.23;1924600;74;21523;-60
2022/07/25 08:21:59;;;;;;;7.83;2.27;;;;;;;33.40;37.50;100756.76;1924719;74;21096;-60
2022/07/25 08:24:28;;;;;;;2.20;2.00;;;;;;;33.40;37.50;100756.76;1924624;74;21024;-60
2022/07/25 08:26:57;;;;;;;3.02;2.02;;;;;;;33.63;37.34;100763.66;1924610;74;21509;-60
2022/07/25 08:29:26;;;;;;;4.85;2.65;;;;;;;33.49;36.94;100760.62;1924652;74;21133;-60
2022/07/25 08:31:54;;;;;;;4.72;2.25;;;;;;;33.02;37.38;100755.95;1924668;74;21055;-60
2022/07/25 08:34:23;;;;;;;7.03;3.10;;;;;;;33.02;37.38;100755.95;1924600;74;21422;-59
2022/07/25 08:36:52;;;;;;;3.45;2.20;;;;;;;32.87;37.70;100752.59;1912247;74;21072;-59
2022/07/25 08:39:20;;;;;;;5.78;2.22;;;;;;;32.48;37.82;100763.13;1905224;75;21004;-60
2022/07/25 08:41:49;;;;;;;3.50;1.80;;;;;;;32.56;38.38;100778.45;1905195;75;21021;-60
2022/07/25 08:44:20;;;;;;;3.95;2.20;;;;;;;32.90;37.89;100760.33;1905328;75;21009;-60
2022/07/25 08:46:49;;;;;;;3.58;2.52;;;;;;;33.25;37.85;100764.29;1905207;75;21517;-60
2022/07/25 08:49:18;;;;;;;4.80;2.00;;;;;;;33.25;37.15;100761.56;1905205;75;21090;-60
2022/07/25 08:51:48;;;;;;;2.62;2.30;;;;;;;33.20;37.73;100764.94;1905328;75;21504;-60
2022/07/25 08:54:16;;;;;;;3.08;2.02;;;;;;;33.36;36.93;100773.21;1905077;75;21098;-60
2022/07/25 08:56:45;;;;;;;3.12;2.20;;;;;;;33.16;36.64;100764.19;1905299;75;21063;-59
2022/07/25 08:59:14;;;;;;;3.35;2.58;;;;;;;33.02;36.68;100767.40;1905220;75;21516;-60
2022/07/25 09:01:42;;;;;;;3.27;2.55;;;;;;;33.29;37.27;100740.98;1905271;75;21060;-60
2022/07/25 09:04:11;;;;;;;3.15;2.52;;;;;;;33.24;37.16;100759.91;1905224;75;21033;-59
2022/07/25 09:06:51;;;;;;;5.60;2.22;;;;;;;33.24;37.16;100759.91;1905222;75;21032;-61
2022/07/25 09:09:21;;;;;;;5.67;2.10;;;;;;;33.69;36.14;100756.55;1905278;75;21098;-60
2022/07/25 09:11:50;;;;;;;3.17;2.20;;;;;;;33.69;36.14;100756.55;1904611;75;21024;-60
2022/07/25 09:14:18;;;;;;;6.08;1.77;;;;;;;33.89;36.18;100763.34;1905230;75;21446;-60
2022/07/25 09:16:47;;;;;;;2.72;1.90;;;;;;;34.06;35.16;100761.81;1905165;75;21025;-60
2022/07/25 09:19:18;;;;;;;2.17;1.98;;;;;;;33.93;35.80;100722.25;1905126;75;21021;-61
2022/07/25 09:21:59;;;;;;;3.17;2.17;;;;;;;34.07;35.07;100745.75;1904355;74;21024;-60
2022/07/25 09:24:28;;;;;;;2.58;2.00;;;;;;;33.87;35.28;100738.97;1905291;75;21033;-60
2022/07/25 09:26:59;;;;;;;4.08;2.20;;;;;;;33.73;35.63;100735.42;1905180;75;21044;-60
2022/07/25 09:29:31;;;;;;;3.15;2.72;;;;;;;33.65;35.99;100734.30;1905193;75;21024;-60
2022/07/25 09:32:01;;;;;;;3.33;1.87;;;;;;;33.26;36.46;100727.79;1905267;75;21127;-60
2022/07/25 09:34:39;;;;;;;4.30;2.50;;;;;;;32.82;37.19;100740.92;1905307;75;21032;-60
2022/07/25 09:37:15;;;;;;;2.27;2.02;;;;;;;32.79;37.22;100737.77;1913363;74;21060;-60
2022/07/25 09:39:49;;;;;;;3.25;2.25;;;;;;;32.97;37.37;100736.64;1922650;74;21575;-59
2022/07/25 09:42:35;;;;;;;2.33;2.12;;;;;;;32.94;37.48;100730.77;1924565;74;21004;-60
2022/07/25 09:45:11;;;;;;;4.72;1.90;;;;;;;32.89;37.31;100736.86;1922891;74;21567;-60
2022/07/25 09:47:51;;;;;;;5.40;2.25;;;;;;;32.90;36.86;100727.61;1924635;74;21012;-60
2022/07/25 09:50:22;;;;;;;2.80;2.17;;;;;;;32.84;37.00;100735.27;1924685;74;21081;-60
2022/07/25 09:52:52;;;;;;;4.33;2.08;;;;;;;33.05;37.35;100727.41;1924507;74;21563;-60
2022/07/25 09:55:22;;;;;;;4.70;2.30;;;;;;;33.14;37.54;100714.45;1924563;74;21105;-60
2022/07/25 09:57:54;;;;;;;2.15;1.95;;;;;;;32.85;36.95;100709.66;1924506;74;21095;-60
2022/07/25 10:00:26;;;;;;;7.47;2.65;;;;;;;31.87;38.19;100699.00;1924684;74;21024;-60
2022/07/25 10:03:20;;;;;;;3.87;3.10;;;;;;;31.28;39.48;100702.97;1924629;74;21522;-60
2022/07/25 10:06:06;;;;;;;3.30;2.85;;;;;;;30.87;39.88;100703.63;1923761;74;21028;-60
2022/07/25 10:08:40;;;;;;;4.22;2.77;;;;;;;30.56;40.88;100708.84;1923906;74;21137;-60
2022/07/25 10:11:24;;;;;;;3.60;2.52;;;;;;;30.80;40.85;100732.09;1924529;74;21106;-60
2022/07/25 10:13:54;;;;;;;3.75;2.55;;;;;;;31.32;40.10;100736.92;1924521;74;21011;-60
2022/07/25 10:16:24;;;;;;;3.15;1.85;;;;;;;31.89;39.70;100737.25;1924579;74;21109;-60
2022/07/25 10:18:55;;;;;;;2.83;1.90;;;;;;;32.39;39.52;100743.05;1924530;74;21474;-60
2022/07/25 10:21:25;;;;;;;3.22;2.00;;;;;;;32.60;38.73;100747.05;1924734;74;21070;-60
2022/07/25 10:24:05;;;;;;;2.27;1.80;;;;;;;32.85;38.35;100751.92;1924631;74;21078;-60
2022/07/25 10:26:39;;;;;;;4.92;2.30;;;;;;;32.89;37.62;100754.58;1924767;74;21079;-60
2022/07/25 10:29:12;;;;;;;3.40;1.85;;;;;;;32.83;37.91;100762.20;1924670;74;21016;-60
2022/07/25 10:31:45;;;;;;;2.70;2.12;;;;;;;32.75;38.30;100757.78;1924780;74;21081;-60
2022/07/25 10:34:13;;;;;;;2.60;2.15;;;;;;;32.81;38.08;100758.84;1924838;74;21099;-60
2022/07/25 10:36:46;;;;;;;2.83;2.33;;;;;;;32.70;37.53;100763.87;1924594;74;21184;-60
2022/07/25 10:39:21;;;;;;;3.10;2.20;;;;;;;32.41;37.50;100764.16;1924646;74;21124;-60
2022/07/25 10:42:02;;;;;;;3.17;2.08;;;;;;;31.99;38.05;100755.11;1924742;74;21024;-60
2022/07/25 10:44:30;;;;;;;5.03;2.20;;;;;;;31.63;38.60;100753.39;1923721;74;21466;-60
2022/07/25 10:47:06;;;;;;;5.30;2.12;;;;;;;31.94;39.06;100751.08;1923387;74;21113;-60
2022/07/25 10:49:40;;;;;;;3.22;2.17;;;;;;;32.13;39.61;100748.20;1924755;74;21011;-60
2022/07/25 10:52:17;;;;;;;3.52;2.10;;;;;;;32.08;39.95;100746.59;1924756;74;21086;-59
2022/07/25 10:54:58;;;;;;;3.27;2.10;;;;;;;32.07;40.49;100741.34;1924631;74;21462;-59
2022/07/25 10:57:28;;;;;;;4.85;2.02;;;;;;;32.07;40.95;100743.54;1924547;74;21051;-60
2022/07/25 11:00:05;;;;;;;3.35;1.82;;;;;;;32.17;40.68;100749.14;1924643;74;20984;-60
2022/07/25 11:02:33;;;;;;;4.33;2.37;;;;;;;32.12;40.92;100742.95;1924681;74;21000;-60
2022/07/25 11:05:04;;;;;;;5.70;2.30;;;;;;;31.85;41.17;100744.11;1924860;74;21067;-59
2022/07/25 11:07:35;;;;;;;2.22;1.80;;;;;;;31.57;41.35;100740.59;1924647;74;21097;-61
2022/07/25 11:10:06;;;;;;;2.07;1.77;;;;;;;31.40;41.52;100747.65;1924980;74;21078;-60
2022/07/25 11:12:34;;;;;;;2.35;1.70;;;;;;;31.31;41.53;100731.15;1924771;74;21145;-59
2022/07/25 11:15:06;;;;;;;3.27;1.80;;;;;;;30.98;41.69;100734.41;1924650;74;21097;-60
2022/07/25 11:17:35;;;;;;;3.70;2.17;;;;;;;30.82;41.73;100730.05;1924741;74;21067;-60
2022/07/25 11:20:07;;;;;;;6.12;2.40;;;;;;;30.74;41.86;100733.70;1924577;74;21078;-60
2022/07/25 11:22:36;;;;;;;5.12;1.85;;;;;;;30.65;42.20;100724.52;1924793;74;21113;-60
2022/07/25 11:25:11;;;;;;;4.10;1.80;;;;;;;30.68;42.41;100718.19;1924590;74;21471;-60
2022/07/25 11:39:28;;;;;;;4.15;2.10;;;;;;;30.64;41.92;100718.25;1960226;72;28012;-60
2022/07/25 11:42:09;;;;;;;2.42;2.22;;;;;;;30.54;42.13;100706.84;1919476;75;21019;-60
2022/07/25 11:44:43;;;;;;;5.42;2.20;;;;;;;30.28;42.38;100701.91;1919459;74;21032;-60
2022/07/25 11:47:33;;;;;;;2.90;1.40;;;;;;;30.01;42.64;100696.99;1919707;75;21117;-60
2022/07/25 11:50:04;;;;;;;3.42;1.47;;;;;;;29.86;43.16;100692.59;1919505;75;21003;-59
2022/07/25 11:52:35;;;;;;;2.40;1.50;;;;;;;29.77;42.91;100695.91;1919824;75;21024;-60
2022/07/25 11:55:07;;;;;;;3.22;2.17;;;;;;;29.65;43.37;100684.66;1919424;75;21362;-60
2022/07/25 11:57:38;;;;;;;3.10;1.80;;;;;;;29.56;43.43;100681.70;1919499;75;21024;-60
2022/07/25 12:00:11;;;;;;;1.80;1.50;;;;;;;29.35;44.13;100665.64;1919577;74;21020;-60
2022/07/25 12:02:39;;;;;;;4.80;1.87;;;;;;;29.33;44.18;100683.97;1919185;74;21039;-60